createdAt,value
2023-05-19T00:00:55.371Z,12.48
2023-05-19T00:03:22.214Z,12.43
2023-05-19T00:05:48.883Z,12.57
2023-05-19T00:08:18.919Z,12.52
2023-05-19T00:10:45.727Z,12.64
2023-05-19T00:13:12.539Z,12.46
2023-05-19T00:15:40.123Z,12.40
2023-05-19T00:18:08.925Z,12.31
2023-05-19T00:20:35.492Z,12.43
2023-05-19T00:23:02.017Z,12.41
2023-05-19T00:25:28.485Z,12.54
2023-05-19T00:27:54.958Z,12.35
2023-05-19T00:30:22.847Z,12.39
2023-05-19T00:32:49.470Z,12.43
2023-05-19T00:35:16.781Z,12.40
2023-05-19T00:37:43.188Z,12.38
2023-05-19T00:40:10.734Z,12.23
2023-05-19T00:42:37.289Z,12.21
2023-05-19T00:45:04.101Z,12.11
2023-05-19T00:47:30.961Z,12.02
2023-05-19T00:49:57.404Z,11.98
2023-05-19T00:52:23.802Z,12.04
2023-05-19T00:54:51.813Z,11.98
2023-05-19T00:57:18.899Z,11.91
2023-05-19T00:59:45.443Z,11.87
2023-05-19T01:02:11.826Z,11.86
2023-05-19T01:04:41.837Z,11.81
2023-05-19T01:07:08.384Z,11.81
2023-05-19T01:09:34.841Z,12.05
2023-05-19T01:12:01.564Z,11.82
2023-05-19T01:14:29.475Z,11.87
2023-05-19T01:17:20.683Z,11.73
2023-05-19T01:19:57.484Z,11.84
2023-05-19T01:22:47.141Z,11.95
2023-05-19T01:25:33.386Z,11.68
2023-05-19T01:28:22.260Z,11.51
2023-05-19T01:30:56.071Z,11.72
2023-05-19T01:33:24.558Z,11.86
2023-05-19T01:35:53.140Z,11.46
2023-05-19T01:38:20.779Z,11.39
2023-05-19T01:40:47.803Z,11.23
2023-05-19T01:43:17.808Z,11.21
2023-05-19T01:45:45.101Z,11.21
2023-05-19T01:48:13.340Z,10.91
2023-05-19T01:50:40.716Z,10.90
2023-05-19T01:53:07.330Z,10.83
2023-05-19T01:55:36.182Z,10.97
2023-05-19T01:58:28.496Z,11.33
2023-05-19T02:01:33.823Z,11.07
2023-05-19T02:04:28.116Z,10.82
2023-05-19T02:07:09.701Z,10.85
2023-05-19T02:09:48.039Z,10.83
2023-05-19T02:12:31.853Z,10.74
2023-05-19T02:15:16.859Z,10.70
2023-05-19T02:17:51.733Z,10.71
2023-05-19T02:20:18.438Z,10.60
2023-05-19T02:22:45.226Z,10.63
2023-05-19T02:25:11.940Z,10.56
2023-05-19T02:27:39.474Z,10.58
2023-05-19T02:30:08.380Z,10.55
2023-05-19T02:32:35.221Z,10.54
2023-05-19T02:35:02.532Z,10.57
2023-05-19T02:37:29.229Z,10.63
2023-05-19T02:39:55.998Z,10.47
2023-05-19T02:42:22.478Z,10.41
2023-05-19T02:44:49.400Z,10.50
2023-05-19T02:47:16.154Z,10.45
2023-05-19T02:49:44.074Z,10.39
2023-05-19T02:52:10.607Z,10.27
2023-05-19T02:54:37.086Z,10.23
2023-05-19T02:57:03.614Z,10.12
2023-05-19T02:59:30.145Z,10.25
2023-05-19T03:02:02.862Z,10.13
2023-05-19T03:04:29.882Z,10.07
2023-05-19T03:06:57.388Z,10.01
2023-05-19T03:09:23.943Z,10.06
2023-05-19T03:11:50.491Z,9.94
2023-05-19T03:14:18.528Z,9.85
2023-05-19T03:16:45.254Z,9.95
2023-05-19T03:19:12.064Z,9.93
2023-05-19T03:21:38.463Z,9.84
2023-05-19T03:24:05.173Z,9.83
2023-05-19T03:26:31.599Z,9.85
2023-05-19T03:28:58.003Z,10.09
2023-05-19T03:31:24.443Z,10.09
2023-05-19T03:33:50.913Z,10.27
2023-05-19T03:36:17.543Z,9.93
2023-05-19T03:38:43.952Z,9.98
2023-05-19T03:41:10.462Z,10.13
2023-05-19T03:43:36.904Z,9.80
2023-05-19T03:46:03.444Z,9.62
2023-05-19T03:48:29.971Z,9.74
2023-05-19T03:50:56.376Z,9.94
2023-05-19T03:53:22.878Z,9.82
2023-05-19T03:55:50.591Z,9.65
2023-05-19T03:58:17.041Z,9.61
2023-05-19T04:00:43.782Z,9.73
2023-05-19T04:03:10.473Z,9.63
2023-05-19T04:05:37.124Z,9.74
2023-05-19T04:08:03.624Z,9.88
2023-05-19T04:10:30.273Z,9.68
2023-05-19T04:12:57.165Z,9.70
2023-05-19T04:15:23.606Z,9.98
2023-05-19T04:17:50.056Z,9.74
2023-05-19T04:20:16.505Z,9.91
2023-05-19T04:22:42.916Z,9.85
2023-05-19T04:25:09.673Z,10.32
2023-05-19T04:27:39.157Z,10.29
2023-05-19T04:30:06.540Z,10.28
2023-05-19T04:32:33.112Z,10.20
2023-05-19T04:34:59.629Z,10.11
2023-05-19T04:37:26.662Z,10.00
2023-05-19T04:39:54.162Z,10.05
2023-05-19T04:42:20.609Z,9.96
2023-05-19T04:44:49.273Z,10.13
2023-05-19T04:47:15.905Z,10.12
2023-05-19T04:49:42.999Z,10.18
2023-05-19T04:52:11.107Z,10.05
2023-05-19T04:54:38.691Z,10.21
2023-05-19T04:57:05.793Z,10.30
2023-05-19T04:59:32.337Z,10.25
2023-05-19T05:01:58.885Z,10.24
2023-05-19T05:04:25.982Z,10.47
2023-05-19T05:06:52.405Z,10.43
2023-05-19T05:09:19.850Z,10.51
2023-05-19T05:11:46.710Z,10.54
2023-05-19T05:14:13.398Z,10.40
2023-05-19T05:16:40.112Z,10.56
2023-05-19T05:19:06.826Z,10.52
2023-05-19T05:21:33.487Z,10.43
2023-05-19T05:24:00.174Z,10.37
2023-05-19T05:26:31.008Z,10.70
2023-05-19T05:28:57.418Z,10.76
2023-05-19T05:31:23.831Z,10.76
2023-05-19T05:33:50.406Z,10.89
2023-05-19T05:36:16.949Z,10.68
2023-05-19T05:38:43.428Z,10.84
2023-05-19T05:41:09.840Z,10.69
2023-05-19T05:43:36.237Z,10.80
2023-05-19T05:46:02.790Z,10.75
2023-05-19T05:48:29.484Z,10.77
2023-05-19T05:50:57.540Z,10.77
2023-05-19T05:53:25.580Z,10.68
2023-05-19T05:55:53.508Z,10.76
2023-05-19T05:58:21.198Z,10.86
2023-05-19T06:00:49.255Z,10.90
2023-05-19T06:03:16.910Z,10.99
2023-05-19T06:05:43.577Z,10.84
2023-05-19T06:08:10.013Z,10.93
2023-05-19T06:10:38.703Z,10.91
2023-05-19T06:13:05.231Z,10.99
2023-05-19T06:15:31.771Z,11.09
2023-05-19T06:17:58.958Z,10.86
2023-05-19T06:20:25.426Z,11.10
2023-05-19T06:22:51.820Z,11.12
2023-05-19T06:25:18.263Z,11.39
2023-05-19T06:27:44.818Z,11.33
2023-05-19T06:30:12.423Z,11.29
2023-05-19T06:32:39.067Z,11.23
2023-05-19T06:35:05.873Z,11.37
2023-05-19T06:37:32.262Z,11.65
2023-05-19T06:39:58.788Z,11.71
2023-05-19T06:42:25.458Z,11.91
2023-05-19T06:44:52.878Z,11.68
2023-05-19T06:47:19.580Z,11.77
2023-05-19T06:49:46.434Z,11.90
2023-05-19T06:52:13.114Z,11.89
2023-05-19T06:54:39.710Z,11.93
2023-05-19T06:57:06.424Z,12.17
2023-05-19T06:59:32.860Z,12.31
2023-05-19T07:01:59.489Z,12.54
2023-05-19T07:04:26.090Z,12.55
2023-05-19T07:06:53.402Z,12.49
2023-05-19T07:09:19.824Z,12.60
2023-05-19T07:11:46.600Z,12.58
2023-05-19T07:14:13.034Z,12.70
2023-05-19T07:16:39.615Z,12.81
2023-05-19T07:19:06.139Z,12.95
2023-05-19T07:21:32.625Z,13.02
2023-05-19T07:23:59.107Z,13.09
2023-05-19T07:26:26.321Z,13.18
2023-05-19T07:28:52.961Z,13.18
2023-05-19T07:31:19.567Z,13.20
2023-05-19T07:33:46.093Z,13.18
2023-05-19T07:36:12.637Z,13.32
2023-05-19T07:38:39.074Z,13.25
2023-05-19T07:41:05.534Z,13.54
2023-05-19T07:43:32.004Z,13.48
2023-05-19T07:45:58.443Z,13.54
2023-05-19T07:48:25.853Z,13.60
2023-05-19T07:50:52.707Z,13.69
2023-05-19T07:53:19.897Z,13.47
2023-05-19T07:55:46.439Z,13.53
2023-05-19T07:58:12.860Z,13.63
2023-05-19T08:00:39.404Z,13.54
2023-05-19T08:03:06.002Z,13.48
2023-05-19T08:05:32.550Z,13.56
2023-05-19T08:07:58.962Z,13.67
2023-05-19T08:10:25.561Z,13.79
2023-05-19T08:12:52.174Z,13.82
2023-05-19T08:15:19.554Z,13.80
2023-05-19T08:17:46.091Z,13.79
2023-05-19T08:20:12.702Z,13.78
2023-05-19T08:22:39.565Z,13.82
2023-05-19T08:25:07.208Z,13.86
2023-05-19T08:27:33.682Z,13.87
2023-05-19T08:30:00.248Z,13.88
2023-05-19T08:32:26.864Z,13.90
2023-05-19T08:34:53.579Z,14.10
2023-05-19T08:37:20.056Z,14.14
2023-05-19T08:39:46.701Z,14.18
2023-05-19T08:42:13.091Z,14.23
2023-05-19T08:44:40.149Z,14.17
2023-05-19T08:47:12.650Z,14.27
2023-05-19T08:49:45.182Z,14.34
2023-05-19T08:52:14.321Z,14.30
2023-05-19T08:54:50.826Z,14.43
2023-05-19T08:57:17.478Z,14.42
2023-05-19T08:59:44.294Z,14.44
2023-05-19T09:02:12.942Z,14.54
2023-05-19T09:04:40.379Z,14.60
2023-05-19T09:07:07.458Z,14.65
2023-05-19T09:09:33.918Z,14.70
2023-05-19T09:12:00.865Z,14.84
2023-05-19T09:14:27.396Z,14.75
2023-05-19T09:16:54.035Z,14.67
2023-05-19T09:19:21.274Z,14.88
2023-05-19T09:21:59.482Z,14.63
2023-05-19T09:24:26.973Z,14.84
2023-05-19T09:26:57.061Z,14.86
2023-05-19T09:29:25.051Z,15.03
2023-05-19T09:31:54.341Z,14.94
2023-05-19T09:34:22.532Z,14.93
2023-05-19T09:36:53.283Z,15.09
2023-05-19T09:39:21.543Z,15.23
2023-05-19T09:41:51.586Z,15.39
2023-05-19T09:44:23.412Z,15.55
2023-05-19T09:46:53.758Z,15.58
2023-05-19T09:49:21.892Z,15.67
2023-05-19T09:51:57.919Z,15.81
2023-05-19T09:54:25.537Z,15.63
2023-05-19T09:56:58.701Z,15.66
2023-05-19T09:59:26.290Z,15.61
2023-05-19T10:02:00.722Z,15.61
2023-05-19T10:04:29.417Z,15.48
2023-05-19T10:06:59.608Z,15.55
2023-05-19T10:09:28.725Z,15.48
2023-05-19T10:11:57.137Z,15.62
2023-05-19T10:14:25.265Z,15.89
2023-05-19T10:16:52.895Z,15.91
2023-05-19T10:19:24.255Z,16.10
2023-05-19T10:21:51.251Z,16.18
2023-05-19T10:24:18.735Z,16.38
2023-05-19T10:27:11.943Z,16.54
2023-05-19T10:29:45.048Z,16.48
2023-05-19T10:32:16.747Z,16.56
2023-05-19T10:35:15.607Z,16.30
2023-05-19T10:38:12.710Z,16.02
2023-05-19T10:40:51.701Z,16.04
2023-05-19T10:43:37.110Z,16.14
2023-05-19T10:46:04.415Z,15.97
2023-05-19T10:48:33.850Z,16.01
2023-05-19T10:51:00.901Z,16.00
2023-05-19T10:53:34.897Z,16.04
2023-05-19T10:56:06.993Z,15.67
2023-05-19T10:58:50.204Z,15.69
2023-05-19T11:01:20.922Z,15.75
2023-05-19T11:03:49.311Z,15.80
2023-05-19T11:06:19.742Z,16.01
2023-05-19T11:08:47.857Z,15.99
2023-05-19T11:11:16.643Z,15.96
2023-05-19T11:13:48.007Z,15.99
2023-05-19T11:16:14.887Z,16.03
2023-05-19T11:18:41.404Z,16.17
2023-05-19T11:21:08.171Z,16.31
2023-05-19T11:23:39.244Z,16.43
2023-05-19T11:26:08.503Z,16.57
2023-05-19T11:28:35.310Z,16.63
2023-05-19T11:31:02.859Z,16.41
2023-05-19T11:33:30.025Z,16.42
2023-05-19T11:35:59.818Z,16.47
2023-05-19T11:38:28.588Z,16.42
2023-05-19T11:40:56.521Z,16.49
2023-05-19T11:43:24.652Z,16.70
2023-05-19T11:45:51.446Z,16.94
2023-05-19T11:48:21.080Z,17.13
2023-05-19T11:50:47.678Z,17.13
2023-05-19T11:53:15.276Z,17.00
2023-05-19T11:55:44.313Z,16.89
2023-05-19T11:58:10.726Z,17.06
2023-05-19T12:00:40.885Z,16.97
2023-05-19T12:03:08.698Z,16.94
2023-05-19T12:05:44.879Z,16.91
2023-05-19T12:08:12.380Z,16.86
2023-05-19T12:10:39.656Z,16.98
2023-05-19T12:13:09.523Z,16.98
2023-05-19T12:15:37.262Z,17.18
2023-05-19T12:18:03.867Z,17.28
2023-05-19T12:20:32.454Z,17.30
2023-05-19T12:23:00.553Z,17.23
2023-05-19T12:25:28.391Z,17.19
2023-05-19T12:27:59.234Z,17.22
2023-05-19T12:30:30.700Z,17.20
2023-05-19T12:32:57.955Z,17.15
2023-05-19T12:35:29.973Z,17.18
2023-05-19T12:37:56.467Z,17.19
2023-05-19T12:40:23.181Z,17.35
2023-05-19T12:42:53.313Z,17.42
2023-05-19T12:45:22.233Z,17.55
2023-05-19T12:47:49.272Z,17.36
2023-05-19T12:50:16.161Z,17.17
2023-05-19T12:52:45.730Z,16.98
2023-05-19T12:55:12.928Z,16.99
2023-05-19T12:57:41.713Z,17.16
2023-05-19T13:00:30.996Z,17.41
2023-05-19T13:03:05.137Z,17.22
2023-05-19T13:05:38.256Z,16.86
2023-05-19T13:08:04.644Z,16.78
2023-05-19T13:10:32.161Z,16.79
2023-05-19T13:13:00.301Z,17.23
2023-05-19T13:15:31.664Z,17.49
2023-05-19T13:17:58.134Z,17.83
2023-05-19T13:20:26.915Z,18.12
2023-05-19T13:22:55.502Z,17.96
2023-05-19T13:25:22.199Z,17.56
2023-05-19T13:27:49.205Z,17.70
2023-05-19T13:30:19.003Z,17.82
2023-05-19T13:32:45.971Z,17.80
2023-05-19T13:35:13.637Z,17.68
2023-05-19T13:37:41.646Z,17.73
2023-05-19T13:40:09.406Z,17.53
2023-05-19T13:42:36.226Z,17.48
2023-05-19T13:45:03.381Z,17.56
2023-05-19T13:47:30.243Z,17.41
2023-05-19T13:49:56.754Z,17.06
2023-05-19T13:52:23.575Z,17.21
2023-05-19T13:54:50.144Z,17.24
2023-05-19T13:57:16.921Z,17.18
2023-05-19T14:00:00.221Z,17.30
2023-05-19T14:02:28.025Z,17.51
2023-05-19T14:04:54.960Z,17.68
2023-05-19T14:07:21.354Z,17.80
2023-05-19T14:09:47.754Z,17.73
2023-05-19T14:12:14.238Z,17.63
2023-05-19T14:14:40.965Z,17.46
2023-05-19T14:17:07.357Z,17.34
2023-05-19T14:19:33.860Z,17.35
2023-05-19T14:22:00.388Z,17.28
2023-05-19T14:24:26.988Z,17.29
2023-05-19T14:26:53.855Z,17.34
2023-05-19T14:29:20.329Z,17.25
2023-05-19T14:31:47.024Z,17.22
2023-05-19T14:34:17.702Z,17.10
2023-05-19T14:36:44.758Z,17.13
2023-05-19T14:39:12.348Z,16.99
2023-05-19T14:41:38.749Z,16.91
2023-05-19T14:44:05.767Z,16.96
2023-05-19T14:46:32.258Z,16.93
2023-05-19T14:48:59.028Z,17.02
2023-05-19T14:51:25.523Z,16.93
2023-05-19T14:53:51.940Z,16.86
2023-05-19T14:56:18.459Z,16.77
2023-05-19T14:58:45.399Z,16.74
2023-05-19T15:01:11.890Z,16.71
2023-05-19T15:03:38.305Z,16.68
2023-05-19T15:06:09.302Z,16.69
2023-05-19T15:08:37.617Z,16.64
2023-05-19T15:11:04.359Z,16.70
2023-05-19T15:13:30.839Z,16.59
2023-05-19T15:16:12.571Z,16.61
2023-05-19T15:18:42.470Z,16.43
2023-05-19T15:21:09.067Z,16.30
2023-05-19T15:23:35.471Z,16.42
2023-05-19T15:26:01.894Z,16.48
2023-05-19T15:28:28.377Z,16.55
2023-05-19T15:30:54.791Z,16.58
2023-05-19T15:33:21.264Z,16.63
2023-05-19T15:35:51.519Z,16.60
2023-05-19T15:38:21.664Z,16.41
2023-05-19T15:40:48.147Z,16.48
2023-05-19T15:43:14.631Z,16.49
2023-05-19T15:45:41.176Z,16.45
2023-05-19T15:48:07.954Z,16.32
2023-05-19T15:50:34.542Z,16.09
2023-05-19T15:53:01.272Z,15.99
2023-05-19T15:55:27.724Z,15.91
2023-05-19T15:57:54.226Z,15.90
2023-05-19T16:00:20.859Z,15.96
2023-05-19T16:02:47.370Z,15.98
2023-05-19T16:05:13.851Z,16.00
2023-05-19T16:07:41.988Z,16.04
2023-05-19T16:10:08.948Z,16.13
2023-05-19T16:12:36.468Z,15.98
2023-05-19T16:15:03.083Z,15.89
2023-05-19T16:17:29.539Z,15.77
2023-05-19T16:19:55.976Z,15.67
2023-05-19T16:22:24.651Z,15.50
2023-05-19T16:24:51.866Z,15.36
2023-05-19T16:27:18.609Z,15.37
2023-05-19T16:32:11.441Z,15.31
2023-05-19T16:34:38.397Z,15.38
2023-05-19T16:37:04.893Z,15.29
2023-05-19T16:39:31.307Z,15.29
2023-05-19T16:41:57.723Z,15.29
2023-05-19T16:44:24.565Z,15.18
2023-05-19T16:46:51.098Z,15.18
2023-05-19T16:49:17.545Z,15.14
2023-05-19T16:51:44.536Z,15.23
2023-05-19T16:54:11.528Z,15.15
2023-05-19T16:56:38.209Z,15.24
2023-05-19T16:59:04.706Z,15.11
2023-05-19T17:01:31.251Z,15.13
2023-05-19T17:03:57.690Z,15.08
2023-05-19T17:06:24.137Z,15.17
2023-05-19T17:08:50.615Z,15.13
2023-05-19T17:11:17.137Z,14.99
2023-05-19T17:13:43.857Z,15.07
2023-05-19T17:16:10.305Z,14.97
2023-05-19T17:18:37.343Z,15.05
2023-05-19T17:21:05.270Z,14.92
2023-05-19T17:23:32.546Z,14.81
2023-05-19T17:25:59.113Z,14.87
2023-05-19T17:28:25.623Z,14.82
2023-05-19T17:30:52.031Z,14.82
2023-05-19T17:33:18.551Z,14.85
2023-05-19T17:35:44.971Z,14.77
2023-05-19T17:38:11.789Z,14.81
2023-05-19T17:40:39.489Z,14.81
2023-05-19T17:43:08.537Z,14.78
2023-05-19T17:45:34.958Z,14.64
2023-05-19T17:48:01.638Z,14.61
2023-05-19T17:50:28.668Z,14.58
2023-05-19T17:52:56.042Z,14.60
2023-05-19T17:55:24.749Z,14.61
2023-05-19T17:57:51.299Z,14.58
2023-05-19T18:00:18.537Z,14.53
2023-05-19T18:02:45.321Z,14.48
2023-05-19T18:05:12.344Z,14.56
2023-05-19T18:07:39.804Z,14.52
2023-05-19T18:10:07.196Z,14.50
2023-05-19T18:12:33.659Z,14.46
2023-05-19T18:15:00.142Z,14.41
2023-05-19T18:17:26.752Z,14.30
2023-05-19T18:19:54.560Z,14.31
2023-05-19T18:22:21.241Z,14.31
2023-05-19T18:24:47.691Z,14.28
2023-05-19T18:27:14.088Z,14.32
2023-05-19T18:29:40.613Z,14.28
2023-05-19T18:32:07.464Z,14.19
2023-05-19T18:34:34.318Z,14.19
2023-05-19T18:37:00.727Z,14.16
2023-05-19T18:39:29.161Z,14.19
2023-05-19T18:41:55.922Z,14.21
2023-05-19T18:44:22.541Z,14.15
2023-05-19T18:46:48.995Z,14.16
2023-05-19T18:49:15.733Z,14.23
2023-05-19T18:51:42.450Z,14.11
2023-05-19T18:54:09.031Z,14.13
2023-05-19T18:56:35.601Z,14.07
2023-05-19T18:59:02.028Z,14.01
2023-05-19T19:01:28.594Z,13.98
2023-05-19T19:03:55.081Z,14.04
2023-05-19T19:06:22.971Z,14.03
2023-05-19T19:08:49.774Z,13.92
2023-05-19T19:11:16.341Z,13.97
2023-05-19T19:13:43.542Z,13.93
2023-05-19T19:16:10.155Z,13.90
2023-05-19T19:18:36.735Z,13.89
2023-05-19T19:21:05.490Z,13.85
2023-05-19T19:23:32.449Z,13.87
2023-05-19T19:25:58.857Z,13.92
2023-05-19T19:28:25.401Z,13.95
2023-05-19T19:30:51.942Z,14.03
2023-05-19T19:33:18.541Z,13.95
2023-05-19T19:35:48.065Z,13.82
2023-05-19T19:38:14.688Z,13.84
2023-05-19T19:40:41.344Z,13.77
2023-05-19T19:43:07.797Z,13.76
2023-05-19T19:45:34.893Z,13.80
2023-05-19T19:48:01.691Z,13.81
2023-05-19T19:50:28.270Z,13.70
2023-05-19T19:52:54.674Z,13.69
2023-05-19T19:55:21.094Z,13.67
2023-05-19T19:57:49.193Z,13.78
2023-05-19T20:00:16.142Z,13.64
2023-05-19T20:02:59.540Z,13.58
2023-05-19T20:05:29.032Z,13.51
2023-05-19T20:07:55.458Z,13.57
2023-05-19T20:10:21.846Z,13.53
2023-05-19T20:12:48.395Z,13.56
2023-05-19T20:15:15.139Z,13.49
2023-05-19T20:17:41.585Z,13.38
2023-05-19T20:20:10.712Z,13.36
2023-05-19T20:22:37.142Z,13.51
2023-05-19T20:25:03.852Z,13.40
2023-05-19T20:27:30.268Z,13.48
2023-05-19T20:29:56.678Z,13.41
2023-05-19T20:32:23.142Z,13.40
2023-05-19T20:34:49.587Z,13.41
2023-05-19T20:37:17.290Z,13.33
2023-05-19T20:39:43.787Z,13.30
2023-05-19T20:42:11.220Z,13.35
2023-05-19T20:44:37.635Z,13.37
2023-05-19T20:47:04.338Z,13.34
2023-05-19T20:49:30.813Z,13.21
2023-05-19T20:51:57.222Z,13.38
2023-05-19T20:54:23.610Z,13.28
2023-05-19T20:56:51.652Z,13.32
2023-05-19T20:59:18.145Z,13.23
2023-05-19T21:01:45.667Z,13.22
2023-05-19T21:04:12.182Z,13.18
2023-05-19T21:06:38.771Z,13.19
2023-05-19T21:09:06.740Z,13.13
2023-05-19T21:11:34.057Z,13.12
2023-05-19T21:14:06.189Z,13.12
2023-05-19T21:16:33.867Z,13.17
2023-05-19T21:19:01.721Z,13.12
2023-05-19T21:21:28.378Z,13.08
2023-05-19T21:23:55.100Z,13.12
2023-05-19T21:26:22.006Z,13.02
2023-05-19T21:28:48.497Z,13.03
2023-05-19T21:31:15.242Z,13.08
2023-05-19T21:33:41.714Z,13.08
2023-05-19T21:36:08.219Z,13.09
2023-05-19T21:38:34.640Z,13.09
2023-05-19T21:41:01.067Z,13.10
2023-05-19T21:43:27.519Z,13.14
2023-05-19T21:45:54.057Z,13.09
2023-05-19T21:48:21.370Z,13.08
2023-05-19T21:50:53.445Z,13.08
2023-05-19T21:53:20.242Z,13.00
2023-05-19T21:55:46.778Z,12.99
2023-05-19T21:58:13.389Z,12.98
2023-05-19T22:00:40.466Z,12.96
2023-05-19T22:03:07.341Z,13.02
2023-05-19T22:05:35.148Z,13.06
2023-05-19T22:08:01.660Z,13.09
2023-05-19T22:10:28.067Z,13.07
2023-05-19T22:12:54.749Z,13.08
2023-05-19T22:15:21.168Z,13.06
2023-05-19T22:17:47.673Z,12.97
2023-05-19T22:20:14.108Z,13.03
2023-05-19T22:22:40.770Z,12.98
2023-05-19T22:25:07.804Z,12.94
2023-05-19T22:27:34.301Z,12.92
2023-05-19T22:30:00.937Z,12.82
2023-05-19T22:32:27.442Z,12.87
2023-05-19T22:34:54.256Z,12.87
2023-05-19T22:37:23.025Z,12.89
2023-05-19T22:39:49.426Z,12.84
2023-05-19T22:42:15.971Z,12.87
2023-05-19T22:44:43.147Z,12.85
2023-05-19T22:47:13.343Z,12.83
2023-05-19T22:49:40.876Z,13.02
2023-05-19T22:52:10.405Z,12.91
2023-05-19T22:54:37.210Z,12.90
2023-05-19T22:57:03.869Z,12.84
2023-05-19T22:59:30.513Z,12.88
2023-05-19T23:01:56.960Z,12.85
2023-05-19T23:04:23.495Z,12.85
2023-05-19T23:06:50.450Z,12.86
2023-05-19T23:09:17.921Z,12.86
2023-05-19T23:11:44.797Z,12.81
2023-05-19T23:14:11.374Z,12.82
2023-05-19T23:16:37.848Z,12.84
2023-05-19T23:19:04.298Z,12.90
2023-05-19T23:21:31.577Z,12.85
2023-05-19T23:23:58.229Z,12.81
2023-05-19T23:26:24.856Z,12.75
2023-05-19T23:28:51.286Z,12.74
2023-05-19T23:31:17.738Z,12.78
2023-05-19T23:33:44.299Z,12.71
2023-05-19T23:36:10.960Z,12.71
2023-05-19T23:38:37.611Z,12.71
2023-05-19T23:41:05.083Z,12.64
2023-05-19T23:43:34.286Z,12.69
2023-05-19T23:46:00.952Z,12.70
2023-05-19T23:48:31.264Z,12.62
2023-05-19T23:50:58.279Z,12.62
2023-05-19T23:53:25.305Z,12.58
2023-05-19T23:55:51.794Z,12.45
2023-05-19T23:58:18.424Z,12.54
